createdAt,value
2022-12-23T00:01:05.858Z,22.90
2022-12-23T00:06:13.767Z,24.50
2022-12-23T00:11:19.259Z,21.70
2022-12-23T00:16:22.128Z,22.30
2022-12-23T00:21:23.953Z,29.90
2022-12-23T00:26:27.752Z,24.60
2022-12-23T00:31:30.769Z,26.50
2022-12-23T00:36:32.735Z,20.10
2022-12-23T00:41:54.569Z,25.70
2022-12-23T00:46:56.397Z,22.70
2022-12-23T00:51:58.617Z,25.20
2022-12-23T00:57:01.053Z,31.00
2022-12-23T01:02:22.124Z,27.30
2022-12-23T01:07:24.825Z,22.40
2022-12-23T01:12:26.583Z,35.00
2022-12-23T01:17:28.274Z,31.70
2022-12-23T01:22:29.990Z,37.00
2022-12-23T01:27:31.775Z,39.90
2022-12-23T01:32:33.464Z,38.80
2022-12-23T01:37:35.404Z,38.00
2022-12-23T01:42:46.771Z,37.60
2022-12-23T01:48:01.582Z,37.70
2022-12-23T01:53:15.519Z,31.40
2022-12-23T01:58:23.250Z,36.40
2022-12-23T02:03:43.768Z,30.90
2022-12-23T02:09:12.113Z,28.10
2022-12-23T02:14:54.808Z,26.80
2022-12-23T02:20:29.376Z,33.50
2022-12-23T02:25:57.619Z,32.70
2022-12-23T02:31:19.958Z,38.30
2022-12-23T02:36:42.872Z,36.10
2022-12-23T02:42:02.486Z,31.90
2022-12-23T02:47:11.425Z,27.60
2022-12-23T02:52:15.883Z,35.80
2022-12-23T02:57:23.633Z,36.30
2022-12-23T03:02:25.474Z,31.40
2022-12-23T03:07:35.389Z,29.90
2022-12-23T03:13:15.376Z,31.60
2022-12-23T03:18:52.556Z,29.90
2022-12-23T03:24:03.986Z,29.20
2022-12-23T03:29:17.430Z,32.40
2022-12-23T03:34:24.455Z,30.00
2022-12-23T03:39:32.933Z,30.20
2022-12-23T03:45:03.610Z,31.50
2022-12-23T03:50:11.367Z,33.10
2022-12-23T03:55:22.173Z,26.10
2022-12-23T04:00:25.464Z,30.70
2022-12-23T04:05:35.682Z,25.30
2022-12-23T04:10:37.761Z,33.70
2022-12-23T04:15:41.397Z,25.00
2022-12-23T04:20:43.283Z,28.90
2022-12-23T04:25:44.990Z,27.10
2022-12-23T04:30:46.859Z,24.20
2022-12-23T04:35:48.634Z,26.20
2022-12-23T04:40:50.375Z,23.30
2022-12-23T04:45:52.308Z,21.30
2022-12-23T04:50:53.996Z,22.00
2022-12-23T04:55:55.695Z,23.80
2022-12-23T05:01:05.797Z,21.00
2022-12-23T05:06:08.163Z,23.10
2022-12-23T05:11:09.866Z,24.40
2022-12-23T05:16:11.777Z,23.50
2022-12-23T05:21:13.898Z,22.90
2022-12-23T05:26:15.619Z,20.50
2022-12-23T05:31:17.519Z,25.60
2022-12-23T05:36:19.411Z,22.20
2022-12-23T05:41:21.118Z,26.20
2022-12-23T05:46:26.805Z,28.40
2022-12-23T05:51:29.080Z,31.80
2022-12-23T05:56:30.848Z,27.10
2022-12-23T06:01:32.810Z,25.30
2022-12-23T06:06:34.748Z,26.90
2022-12-23T06:11:36.566Z,30.90
2022-12-23T06:16:38.384Z,32.60
2022-12-23T06:21:40.126Z,29.40
2022-12-23T06:26:42.563Z,30.60
2022-12-23T06:31:44.721Z,31.30
2022-12-23T06:36:46.713Z,32.50
2022-12-23T06:41:48.541Z,32.00
2022-12-23T06:46:50.322Z,25.40
2022-12-23T06:51:52.200Z,28.00
2022-12-23T06:56:53.881Z,24.10
2022-12-23T07:01:55.750Z,23.20
2022-12-23T07:06:57.977Z,24.10
2022-12-23T07:11:59.706Z,19.20
2022-12-23T07:17:01.690Z,18.10
2022-12-23T07:22:03.545Z,22.80
2022-12-23T07:27:05.372Z,21.30
2022-12-23T07:32:07.172Z,27.20
2022-12-23T07:37:09.098Z,22.50
2022-12-23T07:47:32.544Z,19.40
2022-12-23T07:52:34.405Z,18.90
2022-12-23T07:57:38.319Z,18.90
2022-12-23T08:02:41.141Z,19.30
2022-12-23T08:07:45.153Z,17.10
2022-12-23T08:12:47.017Z,14.90
2022-12-23T08:17:48.891Z,14.70
2022-12-23T08:22:50.664Z,14.90
2022-12-23T08:27:52.509Z,16.50
2022-12-23T08:32:54.257Z,18.60
2022-12-23T08:37:56.470Z,17.50
2022-12-23T08:42:58.411Z,18.10
2022-12-23T08:48:00.100Z,20.60
2022-12-23T08:53:02.071Z,20.00
2022-12-23T08:58:03.767Z,16.80
2022-12-23T09:03:05.731Z,16.00
2022-12-23T09:08:08.423Z,12.10
2022-12-23T09:13:19.921Z,14.90
2022-12-23T09:18:26.886Z,12.20
2022-12-23T09:23:28.893Z,12.60
2022-12-23T09:28:30.697Z,13.30
2022-12-23T09:33:32.491Z,11.20
2022-12-23T09:38:34.781Z,12.60
2022-12-23T09:44:05.801Z,10.80
2022-12-23T09:49:13.597Z,10.30
2022-12-23T09:54:24.397Z,11.50
2022-12-23T09:59:47.679Z,14.30
2022-12-23T10:04:52.481Z,13.50
2022-12-23T10:09:57.699Z,13.70
2022-12-23T10:15:02.547Z,12.20
2022-12-23T10:20:08.361Z,13.10
2022-12-23T10:25:32.871Z,10.00
2022-12-23T10:36:09.585Z,8.30
2022-12-23T10:41:17.397Z,9.30
2022-12-23T10:46:43.906Z,9.50
2022-12-23T10:51:51.755Z,10.20
2022-12-23T10:56:54.843Z,10.20
2022-12-23T11:02:04.401Z,10.00
2022-12-23T11:07:42.695Z,11.00
2022-12-23T11:12:44.109Z,9.70
2022-12-23T11:18:00.169Z,9.80
2022-12-23T11:23:03.989Z,10.30
2022-12-23T11:28:11.861Z,12.80
2022-12-23T11:33:28.406Z,8.00
2022-12-23T11:44:26.976Z,8.90
2022-12-23T11:50:19.450Z,9.60
2022-12-23T11:56:28.290Z,10.00
2022-12-23T12:02:06.010Z,12.70
2022-12-23T12:07:13.233Z,14.50
2022-12-23T12:12:21.144Z,13.60
2022-12-23T12:17:25.383Z,14.10
2022-12-23T12:22:33.171Z,12.90
2022-12-23T12:27:39.591Z,13.70
2022-12-23T12:33:05.667Z,11.40
2022-12-23T12:38:33.432Z,13.30
2022-12-23T12:43:40.776Z,11.80
2022-12-23T12:48:57.008Z,10.20
2022-12-23T12:54:06.214Z,10.10
2022-12-23T12:59:16.567Z,10.40
2022-12-23T13:09:55.625Z,11.60
2022-12-23T13:15:23.620Z,11.30
2022-12-23T13:20:41.156Z,11.00
2022-12-23T13:25:47.153Z,8.60
2022-12-23T13:31:14.023Z,8.50
2022-12-23T13:36:37.322Z,9.70
2022-12-23T13:41:49.223Z,8.90
2022-12-23T13:46:57.310Z,9.50
2022-12-23T13:52:10.491Z,10.20
2022-12-23T13:57:32.031Z,9.10
2022-12-23T14:02:36.972Z,9.40
2022-12-23T14:07:44.866Z,12.70
2022-12-23T14:12:47.095Z,10.40
2022-12-23T14:18:04.905Z,9.70
2022-12-23T14:23:28.523Z,11.50
2022-12-23T14:28:55.302Z,9.10
2022-12-23T14:34:06.260Z,11.60
2022-12-23T14:39:14.062Z,12.50
2022-12-23T14:44:43.727Z,9.40
2022-12-23T14:49:45.688Z,10.80
2022-12-23T14:55:06.409Z,11.30
2022-12-23T15:00:10.315Z,12.10
2022-12-23T15:05:13.347Z,12.10
2022-12-23T15:10:21.820Z,16.80
2022-12-23T15:15:26.152Z,12.70
2022-12-23T15:20:28.378Z,14.30
2022-12-23T15:25:36.015Z,11.40
2022-12-23T15:30:48.455Z,13.80
2022-12-23T15:35:50.708Z,16.50
2022-12-23T15:41:01.559Z,26.70
2022-12-23T15:46:28.605Z,23.20
2022-12-23T15:52:05.959Z,23.00
2022-12-23T15:57:00.114Z,19.70
2022-12-23T16:02:58.461Z,18.70
2022-12-23T16:07:42.361Z,17.60
2022-12-23T16:12:44.559Z,18.70
2022-12-23T16:17:46.549Z,17.50
2022-12-23T16:22:51.268Z,17.60
2022-12-23T16:27:58.386Z,21.70
2022-12-23T16:33:03.357Z,24.70
2022-12-23T16:38:14.261Z,25.10
2022-12-23T16:43:17.084Z,26.00
2022-12-23T16:48:40.659Z,24.40
2022-12-23T16:53:42.493Z,30.20
2022-12-23T16:58:44.711Z,33.00
2022-12-23T17:03:46.576Z,26.20
2022-12-23T17:08:49.376Z,26.30
2022-12-23T17:13:51.194Z,27.70
2022-12-23T17:18:53.557Z,26.40
2022-12-23T17:24:03.386Z,28.10
2022-12-23T17:29:05.846Z,24.70
2022-12-23T17:34:11.863Z,30.90
2022-12-23T17:39:13.610Z,26.60
2022-12-23T17:44:17.639Z,27.00
2022-12-23T17:49:19.415Z,32.10
2022-12-23T17:54:25.010Z,30.40
2022-12-23T17:59:26.772Z,33.90
2022-12-23T18:04:28.502Z,32.70
2022-12-23T18:09:30.234Z,31.40
2022-12-23T18:14:32.213Z,28.90
2022-12-23T18:19:33.938Z,35.90
2022-12-23T18:24:35.639Z,35.60
2022-12-23T18:29:37.376Z,29.60
2022-12-23T18:34:39.306Z,28.40
2022-12-23T18:39:41.785Z,26.40
2022-12-23T18:44:44.901Z,23.90
2022-12-23T18:49:46.657Z,23.50
2022-12-23T18:54:48.443Z,21.50
2022-12-23T18:59:50.200Z,29.70
2022-12-23T19:04:52.469Z,22.80
2022-12-23T19:09:54.233Z,28.00
2022-12-23T19:14:55.995Z,28.60
2022-12-23T19:19:58.061Z,28.10
2022-12-23T19:25:05.752Z,27.20
2022-12-23T19:30:13.843Z,28.30
2022-12-23T19:35:15.816Z,24.80
2022-12-23T19:40:17.983Z,23.90
2022-12-23T19:45:19.853Z,21.00
2022-12-23T19:50:22.290Z,18.80
2022-12-23T19:55:25.444Z,19.40
2022-12-23T20:00:27.215Z,16.50
2022-12-23T20:05:28.992Z,17.00
2022-12-23T20:10:30.850Z,18.40
2022-12-23T20:15:32.675Z,20.10
2022-12-23T20:20:36.185Z,21.50
2022-12-23T20:25:37.931Z,22.20
2022-12-23T20:30:39.842Z,19.20
2022-12-23T20:35:41.828Z,20.60
2022-12-23T20:40:43.577Z,21.50
2022-12-23T20:45:46.310Z,20.50
2022-12-23T20:50:49.306Z,22.00
2022-12-23T20:55:51.126Z,24.30
2022-12-23T21:00:54.004Z,26.20
2022-12-23T21:05:56.860Z,21.80
2022-12-23T21:10:58.978Z,18.00
2022-12-23T21:16:06.393Z,18.50
2022-12-23T21:21:08.315Z,16.80
2022-12-23T21:26:20.815Z,16.90
2022-12-23T21:31:23.987Z,15.90
2022-12-23T21:36:29.169Z,14.80
2022-12-23T21:41:35.684Z,15.50
2022-12-23T21:46:37.464Z,16.50
2022-12-23T21:51:41.070Z,17.00
2022-12-23T21:56:43.406Z,17.70
2022-12-23T22:01:46.718Z,19.70
2022-12-23T22:06:48.526Z,20.40
2022-12-23T22:11:50.593Z,19.60
2022-12-23T22:16:56.277Z,22.30
2022-12-23T22:21:58.071Z,19.90
2022-12-23T22:26:59.887Z,19.30
2022-12-23T22:32:01.752Z,25.10
2022-12-23T22:37:03.481Z,22.30
2022-12-23T22:42:05.268Z,23.20
2022-12-23T22:47:07.252Z,31.00
2022-12-23T22:52:09.199Z,36.30
2022-12-23T22:57:11.458Z,32.10
2022-12-23T23:02:13.344Z,35.60
2022-12-23T23:07:15.122Z,40.80
2022-12-23T23:12:17.118Z,35.10
2022-12-23T23:17:21.036Z,32.70
2022-12-23T23:22:24.597Z,45.20
2022-12-23T23:27:26.417Z,47.70
2022-12-23T23:32:28.255Z,44.00
2022-12-23T23:37:30.042Z,37.00
2022-12-23T23:42:31.877Z,43.50
2022-12-23T23:47:34.950Z,48.10
2022-12-23T23:52:36.734Z,42.80
2022-12-23T23:57:38.464Z,39.20
